createdAt,value
2023-01-11T00:02:38.244Z,100721.95
2023-01-11T00:05:05.679Z,100720.59
2023-01-11T00:07:35.670Z,100718.79
2023-01-11T00:10:04.923Z,100721.09
2023-01-11T00:12:31.934Z,100721.72
2023-01-11T00:14:58.946Z,100728.58
2023-01-11T00:17:25.831Z,100725.52
2023-01-11T00:19:52.838Z,100728.64
2023-01-11T00:22:20.431Z,100726.72
2023-01-11T00:24:47.315Z,100729.70
2023-01-11T00:27:14.174Z,100722.14
2023-01-11T00:29:41.227Z,100722.37
2023-01-11T00:32:08.364Z,100722.94
2023-01-11T00:34:35.445Z,100723.25
2023-01-11T00:37:02.834Z,100720.41
2023-01-11T00:39:29.717Z,100720.55
2023-01-11T00:42:15.294Z,100724.98
2023-01-11T00:45:00.901Z,100713.46
2023-01-11T00:47:49.302Z,100718.10
2023-01-11T00:50:16.368Z,100719.95
2023-01-11T00:52:43.230Z,100719.21
2023-01-11T00:55:10.136Z,100722.08
2023-01-11T00:57:36.989Z,100727.76
2023-01-11T01:00:05.075Z,100721.42
2023-01-11T01:02:32.692Z,100726.60
2023-01-11T01:05:00.353Z,100733.73
2023-01-11T01:07:27.194Z,100735.77
2023-01-11T01:09:54.186Z,100733.15
2023-01-11T01:12:40.242Z,100736.34
2023-01-11T01:15:07.989Z,100729.91
2023-01-11T01:17:34.880Z,100730.02
2023-01-11T01:20:01.986Z,100733.08
2023-01-11T01:22:32.070Z,100735.98
2023-01-11T01:24:59.120Z,100731.54
2023-01-11T01:27:29.023Z,100733.48
2023-01-11T01:29:58.783Z,100727.04
2023-01-11T01:32:26.001Z,100728.67
2023-01-11T01:34:53.352Z,100731.86
2023-01-11T01:37:20.295Z,100737.79
2023-01-11T01:39:47.304Z,100742.95
2023-01-11T01:42:18.903Z,100745.72
2023-01-11T01:45:07.137Z,100747.79
2023-01-11T01:47:49.273Z,100743.16
2023-01-11T01:50:22.672Z,100742.17
2023-01-11T01:52:51.509Z,100738.04
2023-01-11T01:55:23.580Z,100736.34
2023-01-11T01:57:50.510Z,100738.73
2023-01-11T02:00:18.102Z,100738.90
2023-01-11T02:02:45.078Z,100734.37
2023-01-11T02:05:12.293Z,100736.60
2023-01-11T02:07:39.815Z,100740.52
2023-01-11T02:10:15.521Z,100740.41
2023-01-11T02:12:45.044Z,100740.52
2023-01-11T02:15:11.990Z,100737.05
2023-01-11T02:17:38.961Z,100743.91
2023-01-11T02:20:12.255Z,100745.86
2023-01-11T02:22:45.848Z,100749.88
2023-01-11T02:25:15.874Z,100751.30
2023-01-11T02:27:54.771Z,100750.41
2023-01-11T02:30:25.708Z,100751.27
2023-01-11T02:33:19.971Z,100743.85
2023-01-11T02:36:02.172Z,100749.67
2023-01-11T02:38:33.735Z,100747.19
2023-01-11T02:41:25.417Z,100746.25
2023-01-11T02:44:29.672Z,100744.11
2023-01-11T02:47:03.581Z,100739.35
2023-01-11T02:49:45.062Z,100738.11
2023-01-11T02:52:37.649Z,100735.77
2023-01-11T02:55:05.049Z,100737.41
2023-01-11T02:57:31.907Z,100734.45
2023-01-11T02:59:58.852Z,100730.60
2023-01-11T03:02:25.854Z,100729.43
2023-01-11T03:04:52.849Z,100731.84
2023-01-11T03:07:33.507Z,100735.79
2023-01-11T03:10:51.527Z,100733.82
2023-01-11T03:13:40.294Z,100733.48
2023-01-11T03:16:26.295Z,100744.36
2023-01-11T03:19:00.469Z,100752.92
2023-01-11T03:21:37.837Z,100757.36
2023-01-11T03:24:15.973Z,100758.34
2023-01-11T03:26:50.310Z,100764.81
2023-01-11T03:29:36.394Z,100771.72
2023-01-11T03:32:37.112Z,100774.04
2023-01-11T03:35:09.821Z,100768.58
2023-01-11T03:38:04.207Z,100775.31
2023-01-11T03:40:33.946Z,100777.67
2023-01-11T03:43:11.403Z,100779.64
2023-01-11T03:46:01.540Z,100782.15
2023-01-11T03:48:59.040Z,100781.94
2023-01-11T03:51:29.693Z,100782.95
2023-01-11T03:53:59.736Z,100784.07
2023-01-11T03:56:37.220Z,100777.98
2023-01-11T03:59:04.226Z,100783.73
2023-01-11T04:01:31.207Z,100782.29
2023-01-11T04:03:58.233Z,100776.69
2023-01-11T04:06:25.932Z,100777.00
2023-01-11T04:08:52.847Z,100780.18
2023-01-11T04:11:19.763Z,100783.09
2023-01-11T04:13:46.678Z,100791.15
2023-01-11T04:16:13.698Z,100791.26
2023-01-11T04:18:41.339Z,100792.77
2023-01-11T04:21:08.265Z,100788.78
2023-01-11T04:23:35.834Z,100786.02
2023-01-11T04:26:02.706Z,100786.39
2023-01-11T04:28:29.605Z,100778.69
2023-01-11T04:30:56.528Z,100785.07
2023-01-11T04:33:23.483Z,100796.19
2023-01-11T04:35:50.403Z,100804.71
2023-01-11T04:38:17.361Z,100810.74
2023-01-11T04:40:44.474Z,100810.34
2023-01-11T04:43:11.407Z,100812.50
2023-01-11T04:45:38.324Z,100814.28
2023-01-11T04:48:05.497Z,100815.77
2023-01-11T04:50:32.516Z,100815.65
2023-01-11T04:52:59.729Z,100817.41
2023-01-11T04:55:26.598Z,100823.68
2023-01-11T04:57:53.515Z,100820.98
2023-01-11T05:00:20.707Z,100824.12
2023-01-11T05:02:47.625Z,100829.98
2023-01-11T05:05:14.529Z,100833.83
2023-01-11T05:07:41.608Z,100829.59
2023-01-11T05:10:09.492Z,100828.70
2023-01-11T05:12:36.413Z,100827.46
2023-01-11T05:15:03.499Z,100826.48
2023-01-11T05:17:30.658Z,100823.96
2023-01-11T05:19:57.651Z,100827.10
2023-01-11T05:22:24.596Z,100825.31
2023-01-11T05:24:51.496Z,100823.24
2023-01-11T05:27:18.462Z,100828.07
2023-01-11T05:29:45.433Z,100828.05
2023-01-11T05:32:12.952Z,100832.92
2023-01-11T05:34:39.960Z,100836.85
2023-01-11T05:37:06.866Z,100843.07
2023-01-11T05:39:33.773Z,100845.96
2023-01-11T05:42:00.720Z,100845.38
2023-01-11T05:44:50.123Z,100850.48
2023-01-11T05:47:17.510Z,100850.71
2023-01-11T05:49:44.470Z,100853.34
2023-01-11T05:52:11.407Z,100843.74
2023-01-11T05:54:38.447Z,100844.89
2023-01-11T05:57:10.686Z,100850.23
2023-01-11T05:59:37.644Z,100850.92
2023-01-11T06:02:04.842Z,100850.33
2023-01-11T06:04:31.860Z,100850.44
2023-01-11T06:06:58.860Z,100850.14
2023-01-11T06:09:26.155Z,100857.05
2023-01-11T06:11:53.160Z,100860.84
2023-01-11T06:14:20.134Z,100863.50
2023-01-11T06:16:47.183Z,100867.52
2023-01-11T06:19:14.280Z,100862.83
2023-01-11T06:21:41.485Z,100858.20
2023-01-11T06:24:08.721Z,100850.88
2023-01-11T06:26:35.654Z,100854.19
2023-01-11T06:29:02.544Z,100853.52
2023-01-11T06:31:29.558Z,100849.48
2023-01-11T06:33:56.468Z,100851.92
2023-01-11T06:36:23.538Z,100851.79
2023-01-11T06:38:50.508Z,100853.58
2023-01-11T06:41:17.501Z,100850.29
2023-01-11T06:43:44.456Z,100854.55
2023-01-11T06:46:15.347Z,100860.97
2023-01-11T06:48:43.287Z,100864.37
2023-01-11T06:51:13.150Z,100865.28
2023-01-11T06:53:40.582Z,100865.23
2023-01-11T06:56:09.668Z,100869.05
2023-01-11T06:58:37.938Z,100875.35
2023-01-11T07:01:05.161Z,100878.89
2023-01-11T07:03:32.352Z,100873.48
2023-01-11T07:05:59.240Z,100873.15
2023-01-11T07:08:26.174Z,100871.74
2023-01-11T07:10:53.078Z,100867.02
2023-01-11T07:13:20.161Z,100861.58
2023-01-11T07:15:51.902Z,100855.30
2023-01-11T07:18:19.049Z,100851.42
2023-01-11T07:20:46.181Z,100842.41
2023-01-11T07:23:13.105Z,100845.00
2023-01-11T07:25:41.212Z,100850.73
2023-01-11T07:28:08.719Z,100852.02
2023-01-11T07:30:55.557Z,100859.70
2023-01-11T07:33:23.692Z,100863.86
2023-01-11T07:35:50.683Z,100859.19
2023-01-11T07:38:17.606Z,100866.95
2023-01-11T07:40:44.551Z,100871.88
2023-01-11T07:43:15.312Z,100877.05
2023-01-11T07:45:49.022Z,100870.84
2023-01-11T07:48:21.563Z,100872.86
2023-01-11T07:50:49.037Z,100877.21
2023-01-11T07:53:16.058Z,100884.30
2023-01-11T07:55:43.805Z,100888.13
2023-01-11T07:58:11.993Z,100902.80
2023-01-11T08:00:43.211Z,100908.33
2023-01-11T08:03:10.535Z,100907.03
2023-01-11T08:05:37.767Z,100899.33
2023-01-11T08:08:05.495Z,100903.92
2023-01-11T08:10:32.651Z,100891.77
2023-01-11T08:13:18.508Z,100888.61
2023-01-11T08:15:45.554Z,100892.88
2023-01-11T08:18:12.918Z,100896.63
2023-01-11T08:20:40.155Z,100900.11
2023-01-11T08:23:08.953Z,100892.83
2023-01-11T08:25:36.045Z,100905.68
2023-01-11T08:28:04.444Z,100900.19
2023-01-11T08:30:31.378Z,100892.47
2023-01-11T08:33:00.791Z,100889.25
2023-01-11T08:35:27.723Z,100892.42
2023-01-11T08:37:54.761Z,100879.84
2023-01-11T08:40:23.884Z,100876.10
2023-01-11T08:43:03.550Z,100878.95
2023-01-11T08:45:30.575Z,100871.73
2023-01-11T08:47:59.331Z,100864.43
2023-01-11T08:50:26.304Z,100874.05
2023-01-11T08:52:53.313Z,100861.89
2023-01-11T08:55:22.868Z,100858.17
2023-01-11T08:57:49.963Z,100863.48
2023-01-11T09:00:17.685Z,100850.36
2023-01-11T09:02:47.540Z,100849.42
2023-01-11T09:05:16.258Z,100841.96
2023-01-11T09:07:45.547Z,100851.43
2023-01-11T09:10:12.511Z,100858.90
2023-01-11T09:12:39.441Z,100861.29
2023-01-11T09:15:06.971Z,100859.98
2023-01-11T09:17:34.331Z,100862.84
2023-01-11T09:20:01.168Z,100868.88
2023-01-11T09:22:28.773Z,100872.98
2023-01-11T09:24:59.105Z,100859.86
2023-01-11T09:27:26.631Z,100857.41
2023-01-11T09:29:53.635Z,100856.67
2023-01-11T09:32:20.596Z,100865.73
2023-01-11T09:34:49.754Z,100867.89
2023-01-11T09:37:16.908Z,100867.91
2023-01-11T09:39:43.971Z,100865.36
2023-01-11T09:42:17.816Z,100862.38
2023-01-11T09:44:50.406Z,100862.17
2023-01-11T09:47:25.545Z,100854.64
2023-01-11T09:49:56.433Z,100846.95
2023-01-11T09:52:25.337Z,100843.05
2023-01-11T09:54:52.422Z,100839.55
2023-01-11T09:57:47.420Z,100834.85
2023-01-11T10:00:37.532Z,100831.33
2023-01-11T10:03:27.280Z,100827.44
2023-01-11T10:06:08.780Z,100824.27
2023-01-11T10:18:30.103Z,100808.16
2023-01-11T10:19:17.033Z,100806.89
2023-01-11T10:21:29.353Z,100802.65
2023-01-11T10:24:01.440Z,100791.86
2023-01-11T10:26:32.576Z,100787.40
2023-01-11T10:29:17.542Z,100783.82
2023-01-11T10:31:59.757Z,100784.02
2023-01-11T10:34:50.689Z,100783.93
2023-01-11T10:37:39.677Z,100781.75
2023-01-11T10:40:39.143Z,100782.94
2023-01-11T10:43:17.237Z,100785.05
2023-01-11T10:45:55.799Z,100779.98
2023-01-11T10:48:33.675Z,100776.29
2023-01-11T10:51:05.650Z,100769.17
2023-01-11T10:53:36.142Z,100765.08
2023-01-11T10:56:25.508Z,100752.20
2023-01-11T10:58:53.543Z,100752.09
2023-01-11T11:01:46.532Z,100757.73
2023-01-11T11:04:38.658Z,100758.61
2023-01-11T11:07:20.920Z,100755.23
2023-01-11T11:10:26.136Z,100756.98
2023-01-11T11:13:12.092Z,100763.72
2023-01-11T11:15:55.381Z,100768.99
2023-01-11T11:18:23.117Z,100764.93
2023-01-11T11:20:50.639Z,100763.21
2023-01-11T11:23:19.851Z,100762.73
2023-01-11T11:26:02.128Z,100762.83
2023-01-11T11:28:31.004Z,100761.91
2023-01-11T11:30:59.805Z,100766.10
2023-01-11T11:33:42.212Z,100767.02
2023-01-11T11:36:13.175Z,100764.31
2023-01-11T11:39:17.823Z,100746.73
2023-01-11T11:41:49.442Z,100740.88
2023-01-11T11:44:27.642Z,100744.02
2023-01-11T11:47:02.378Z,100755.67
2023-01-11T11:49:30.894Z,100755.40
2023-01-11T11:51:58.997Z,100757.73
2023-01-11T11:54:50.640Z,100759.46
2023-01-11T11:57:22.971Z,100769.53
2023-01-11T11:59:52.834Z,100770.35
2023-01-11T12:02:26.615Z,100763.39
2023-01-11T12:04:53.685Z,100761.55
2023-01-11T12:07:22.292Z,100768.86
2023-01-11T12:10:01.142Z,100764.80
2023-01-11T12:12:29.613Z,100762.48
2023-01-11T12:15:15.130Z,100755.30
2023-01-11T12:17:45.154Z,100749.13
2023-01-11T12:20:27.475Z,100750.69
2023-01-11T12:23:15.364Z,100748.90
2023-01-11T12:26:05.638Z,100754.23
2023-01-11T12:28:51.390Z,100759.66
2023-01-11T12:31:37.337Z,100755.73
2023-01-11T12:34:16.486Z,100749.97
2023-01-11T12:37:15.929Z,100753.62
2023-01-11T12:40:19.107Z,100741.94
2023-01-11T12:42:55.314Z,100745.27
2023-01-11T12:45:49.474Z,100754.41
2023-01-11T12:48:38.657Z,100756.98
2023-01-11T12:51:05.712Z,100753.98
2023-01-11T12:53:36.335Z,100750.85
2023-01-11T12:56:55.038Z,100753.41
2023-01-11T12:59:25.979Z,100753.39
2023-01-11T13:01:58.860Z,100748.45
2023-01-11T13:04:50.813Z,100747.95
2023-01-11T13:07:25.161Z,100748.44
2023-01-11T13:10:07.599Z,100748.71
2023-01-11T13:12:43.122Z,100747.09
2023-01-11T13:15:19.125Z,100745.64
2023-01-11T13:17:53.575Z,100745.67
2023-01-11T13:20:48.766Z,100748.88
2023-01-11T13:23:54.930Z,100757.52
2023-01-11T13:26:23.917Z,100760.23
2023-01-11T13:29:05.146Z,100764.70
2023-01-11T13:31:33.723Z,100768.86
2023-01-11T13:34:06.583Z,100785.96
2023-01-11T13:36:38.933Z,100788.94
2023-01-11T13:39:15.212Z,100789.07
2023-01-11T13:41:46.893Z,100783.45
2023-01-11T13:44:21.581Z,100785.62
2023-01-11T13:47:00.624Z,100793.85
2023-01-11T13:50:05.729Z,100797.43
2023-01-11T13:52:56.383Z,100782.54
2023-01-11T13:55:44.747Z,100780.86
2023-01-11T13:58:25.681Z,100783.70
2023-01-11T14:01:00.957Z,100783.41
2023-01-11T14:03:31.638Z,100786.20
2023-01-11T14:06:04.640Z,100789.02
2023-01-11T14:08:48.404Z,100789.66
2023-01-11T14:11:31.481Z,100785.63
2023-01-11T14:14:14.149Z,100794.60
2023-01-11T14:16:50.597Z,100801.29
2023-01-11T14:19:21.832Z,100800.47
2023-01-11T14:22:04.692Z,100796.23
2023-01-11T14:24:33.139Z,100794.38
2023-01-11T14:27:21.932Z,100801.80
2023-01-11T14:30:08.475Z,100819.30
2023-01-11T14:32:41.666Z,100817.55
2023-01-11T14:35:34.458Z,100806.96
2023-01-11T14:38:35.813Z,100809.11
2023-01-11T14:41:06.007Z,100818.69
2023-01-11T14:43:44.614Z,100815.98
2023-01-11T14:46:23.948Z,100813.77
2023-01-11T14:49:12.954Z,100812.02
2023-01-11T14:52:01.849Z,100807.06
2023-01-11T14:54:31.579Z,100803.52
2023-01-11T14:56:58.771Z,100811.86
2023-01-11T14:59:39.851Z,100815.23
2023-01-11T15:02:10.760Z,100822.16
2023-01-11T15:04:39.749Z,100821.83
2023-01-11T15:07:24.584Z,100828.92
2023-01-11T15:09:53.751Z,100823.80
2023-01-11T15:12:34.734Z,100826.30
2023-01-11T15:15:07.785Z,100828.96
2023-01-11T15:17:53.350Z,100834.91
2023-01-11T15:20:23.590Z,100839.20
2023-01-11T15:23:01.089Z,100833.66
2023-01-11T15:25:29.572Z,100822.92
2023-01-11T15:27:56.693Z,100823.95
2023-01-11T15:30:30.437Z,100826.95
2023-01-11T15:33:19.654Z,100826.55
2023-01-11T15:35:56.485Z,100825.32
2023-01-11T15:38:45.463Z,100825.95
2023-01-11T15:41:39.819Z,100817.98
2023-01-11T15:44:46.017Z,100811.70
2023-01-11T15:47:18.917Z,100806.10
2023-01-11T15:50:07.769Z,100804.16
2023-01-11T15:52:37.764Z,100803.00
2023-01-11T15:55:38.917Z,100798.92
2023-01-11T15:58:40.067Z,100799.22
2023-01-11T16:01:29.551Z,100795.35
2023-01-11T16:04:00.955Z,100792.41
2023-01-11T16:06:37.362Z,100792.23
2023-01-11T16:09:33.280Z,100799.36
2023-01-11T16:12:36.509Z,100803.79
2023-01-11T16:15:21.827Z,100803.91
2023-01-11T16:17:49.028Z,100803.85
2023-01-11T16:20:28.984Z,100804.96
2023-01-11T16:23:03.694Z,100806.16
2023-01-11T16:25:38.386Z,100808.48
2023-01-11T16:28:06.117Z,100810.27
2023-01-11T16:30:32.996Z,100819.38
2023-01-11T16:33:23.181Z,100814.45
2023-01-11T16:35:50.398Z,100810.95
2023-01-11T16:38:19.646Z,100812.23
2023-01-11T16:40:49.860Z,100814.56
2023-01-11T16:43:22.832Z,100816.58
2023-01-11T16:45:51.518Z,100821.99
2023-01-11T16:48:19.294Z,100829.66
2023-01-11T16:50:48.714Z,100832.75
2023-01-11T16:53:16.122Z,100830.66
2023-01-11T16:55:47.931Z,100829.25
2023-01-11T16:58:26.066Z,100825.77
2023-01-11T17:01:19.385Z,100816.94
2023-01-11T17:03:54.135Z,100813.06
2023-01-11T17:06:22.304Z,100813.43
2023-01-11T17:08:56.833Z,100815.23
2023-01-11T17:11:46.874Z,100808.45
2023-01-11T17:14:24.855Z,100813.43
2023-01-11T17:16:54.170Z,100810.11
2023-01-11T17:19:23.943Z,100814.23
2023-01-11T17:21:52.410Z,100815.06
2023-01-11T17:24:24.961Z,100811.10
2023-01-11T17:26:57.162Z,100806.48
2023-01-11T17:29:38.004Z,100797.49
2023-01-11T17:32:06.545Z,100798.45
2023-01-11T17:34:35.155Z,100799.64
2023-01-11T17:37:03.663Z,100796.09
2023-01-11T17:39:35.007Z,100792.80
2023-01-11T17:45:20.785Z,100798.10
2023-01-11T17:47:52.593Z,100789.12
2023-01-11T17:50:28.724Z,100793.16
2023-01-11T17:53:14.163Z,100795.24
2023-01-11T17:56:00.943Z,100798.98
2023-01-11T17:58:33.739Z,100796.23
2023-01-11T18:01:16.474Z,100795.13
2023-01-11T18:03:46.441Z,100788.10
2023-01-11T18:06:45.080Z,100785.55
2023-01-11T18:09:30.741Z,100779.52
2023-01-11T18:12:20.973Z,100771.12
2023-01-11T18:14:53.374Z,100761.35
2023-01-11T18:17:33.235Z,100756.22
2023-01-11T18:20:00.239Z,100757.64
2023-01-11T18:22:40.621Z,100751.15
2023-01-11T18:25:21.729Z,100753.73
2023-01-11T18:27:48.894Z,100742.48
2023-01-11T18:30:40.179Z,100740.33
2023-01-11T18:33:19.705Z,100740.39
2023-01-11T18:35:48.674Z,100733.60
2023-01-11T18:38:23.254Z,100740.19
2023-01-11T18:40:50.605Z,100739.26
2023-01-11T18:43:24.794Z,100745.95
2023-01-11T18:45:54.320Z,100743.52
2023-01-11T18:48:21.522Z,100740.80
2023-01-11T18:50:52.651Z,100741.80
2023-01-11T18:53:19.673Z,100734.65
2023-01-11T18:55:46.666Z,100732.61
2023-01-11T18:58:14.051Z,100731.69
2023-01-11T19:00:41.799Z,100735.56
2023-01-11T19:03:12.202Z,100732.18
2023-01-11T19:05:40.208Z,100724.45
2023-01-11T19:08:07.641Z,100721.61
2023-01-11T19:10:34.920Z,100719.52
2023-01-11T19:13:03.457Z,100719.39
2023-01-11T19:15:30.450Z,100713.26
2023-01-11T19:17:57.613Z,100709.92
2023-01-11T19:20:24.505Z,100699.30
2023-01-11T19:22:51.689Z,100696.60
2023-01-11T19:25:18.808Z,100693.30
2023-01-11T19:27:45.701Z,100691.36
2023-01-11T19:30:13.339Z,100687.11
2023-01-11T19:32:40.269Z,100677.79
2023-01-11T19:35:08.462Z,100670.77
2023-01-11T19:37:37.515Z,100672.79
2023-01-11T19:40:07.337Z,100677.84
2023-01-11T19:42:34.243Z,100680.77
2023-01-11T19:45:01.248Z,100688.73
2023-01-11T19:47:28.180Z,100690.85
2023-01-11T19:49:59.837Z,100691.77
2023-01-11T19:52:27.189Z,100688.50
2023-01-11T19:54:55.238Z,100694.00
2023-01-11T19:57:22.196Z,100688.32
2023-01-11T19:59:49.603Z,100688.75
2023-01-11T20:02:18.334Z,100692.43
2023-01-11T20:04:45.318Z,100690.23
2023-01-11T20:07:12.582Z,100682.88
2023-01-11T20:09:39.598Z,100677.31
2023-01-11T20:12:09.983Z,100672.33
2023-01-11T20:14:38.248Z,100674.85
2023-01-11T20:17:05.255Z,100666.84
2023-01-11T20:19:32.221Z,100664.93
2023-01-11T20:21:59.149Z,100657.86
2023-01-11T20:24:30.109Z,100656.09
2023-01-11T20:27:00.725Z,100657.19
2023-01-11T20:29:28.003Z,100660.43
2023-01-11T20:31:55.794Z,100661.84
2023-01-11T20:34:23.629Z,100655.74
2023-01-11T20:36:54.001Z,100657.80
2023-01-11T21:20:34.586Z,100651.86
2023-01-11T21:23:01.893Z,100647.23
2023-01-11T21:25:28.829Z,100648.36
2023-01-11T21:27:55.829Z,100648.80
2023-01-11T21:30:23.539Z,100649.46
2023-01-11T21:32:50.607Z,100650.40
2023-01-11T21:35:17.608Z,100648.17
2023-01-11T21:37:44.497Z,100654.86
2023-01-11T21:40:14.257Z,100656.04
2023-01-11T21:42:42.061Z,100658.55
2023-01-11T21:45:10.483Z,100660.08
2023-01-11T21:47:39.863Z,100666.16
2023-01-11T21:50:10.849Z,100666.92
2023-01-11T21:52:38.227Z,100666.61
2023-01-11T21:55:05.553Z,100665.10
2023-01-11T21:57:32.441Z,100663.54
2023-01-11T21:59:59.333Z,100654.00
2023-01-11T22:02:26.327Z,100652.52
2023-01-11T22:04:57.797Z,100657.23
2023-01-11T22:07:28.125Z,100657.42
2023-01-11T22:10:04.476Z,100660.21
2023-01-11T22:12:33.774Z,100661.93
2023-01-11T22:15:03.462Z,100661.92
2023-01-11T22:17:39.605Z,100661.52
2023-01-11T22:20:07.272Z,100656.27
2023-01-11T22:22:34.355Z,100648.69
2023-01-11T22:25:01.261Z,100647.49
2023-01-11T22:27:28.313Z,100650.33
2023-01-11T22:29:55.370Z,100655.30
2023-01-11T22:32:22.282Z,100655.77
2023-01-11T22:34:49.541Z,100649.61
2023-01-11T22:37:20.176Z,100648.79
2023-01-11T22:39:49.569Z,100652.73
2023-01-11T22:42:16.544Z,100654.58
2023-01-11T22:44:43.755Z,100651.82
2023-01-11T22:47:10.691Z,100647.38
2023-01-11T22:49:37.720Z,100645.55
2023-01-11T22:52:06.761Z,100637.15
2023-01-11T22:54:33.735Z,100637.10
2023-01-11T22:57:00.680Z,100636.70
2023-01-11T22:59:27.791Z,100633.20
2023-01-11T23:01:54.868Z,100623.14
2023-01-11T23:04:21.881Z,100616.89
2023-01-11T23:06:48.860Z,100610.04
2023-01-11T23:09:16.893Z,100611.31
2023-01-11T23:12:02.815Z,100612.92
2023-01-11T23:14:33.604Z,100611.58
2023-01-11T23:17:07.339Z,100611.86
2023-01-11T23:19:40.478Z,100610.04
2023-01-11T23:22:08.433Z,100611.75
2023-01-11T23:24:36.238Z,100613.83
2023-01-11T23:27:03.265Z,100612.30
2023-01-11T23:29:32.828Z,100606.88
2023-01-11T23:31:59.963Z,100604.86
2023-01-11T23:34:27.359Z,100608.52
2023-01-11T23:36:54.324Z,100607.61
2023-01-11T23:39:21.485Z,100606.36
2023-01-11T23:42:07.262Z,100605.76
2023-01-11T23:44:34.665Z,100608.44
2023-01-11T23:47:20.368Z,100612.86
2023-01-11T23:49:57.575Z,100615.98
2023-01-11T23:52:25.924Z,100612.52
2023-01-11T23:54:55.845Z,100612.29
2023-01-11T23:57:23.860Z,100611.14
2023-01-11T23:59:50.843Z,100606.45
